createdAt,value
2023-08-31T00:01:51.888Z,7.00
2023-08-31T00:04:21.204Z,7.68
2023-08-31T00:06:50.557Z,6.93
2023-08-31T00:09:20.361Z,7.40
2023-08-31T00:11:49.500Z,6.80
2023-08-31T00:14:20.238Z,7.07
2023-08-31T00:16:49.313Z,7.30
2023-08-31T00:19:19.103Z,7.43
2023-08-31T00:21:48.229Z,6.88
2023-08-31T00:24:17.336Z,6.75
2023-08-31T00:26:46.667Z,6.47
2023-08-31T00:29:17.791Z,7.15
2023-08-31T00:31:49.583Z,6.78
2023-08-31T00:34:18.808Z,6.28
2023-08-31T00:36:47.969Z,6.43
2023-08-31T00:39:19.014Z,6.47
2023-08-31T00:41:48.081Z,5.93
2023-08-31T00:44:19.301Z,6.40
2023-08-31T00:46:53.152Z,6.73
2023-08-31T00:49:22.312Z,5.93
2023-08-31T00:51:52.295Z,6.43
2023-08-31T00:54:22.247Z,6.13
2023-08-31T00:56:56.271Z,5.97
2023-08-31T00:59:25.769Z,5.88
2023-08-31T01:02:06.294Z,6.25
2023-08-31T01:04:44.030Z,5.75
2023-08-31T01:07:24.860Z,6.00
2023-08-31T01:10:00.459Z,6.03
2023-08-31T01:12:39.791Z,5.65
2023-08-31T01:15:14.124Z,5.50
2023-08-31T01:17:49.517Z,5.43
2023-08-31T01:20:23.212Z,5.60
2023-08-31T01:23:00.328Z,5.00
2023-08-31T01:25:34.128Z,4.97
2023-08-31T01:28:04.911Z,5.05
2023-08-31T01:30:34.744Z,4.95
2023-08-31T01:33:03.916Z,5.30
2023-08-31T01:35:40.731Z,4.90
2023-08-31T01:38:12.050Z,4.90
2023-08-31T01:40:50.979Z,4.50
2023-08-31T01:43:21.258Z,4.40
2023-08-31T01:45:51.027Z,5.03
2023-08-31T01:48:20.242Z,5.13
2023-08-31T01:50:49.346Z,4.85
2023-08-31T01:53:18.448Z,4.22
2023-08-31T01:55:49.016Z,4.90
2023-08-31T01:58:18.086Z,4.57
2023-08-31T02:00:47.258Z,4.38
2023-08-31T02:03:16.566Z,4.68
2023-08-31T02:05:46.020Z,5.07
2023-08-31T02:08:19.113Z,4.70
2023-08-31T02:10:50.671Z,5.27
2023-08-31T02:13:25.662Z,4.77
2023-08-31T02:15:55.128Z,4.65
2023-08-31T02:18:24.421Z,4.90
2023-08-31T02:20:55.227Z,5.00
2023-08-31T02:23:24.324Z,5.68
2023-08-31T02:25:54.791Z,4.40
2023-08-31T02:28:23.964Z,5.00
2023-08-31T02:31:01.233Z,5.03
2023-08-31T02:33:33.574Z,4.90
2023-08-31T02:36:02.633Z,4.65
2023-08-31T02:38:31.801Z,4.60
2023-08-31T02:41:02.281Z,4.80
2023-08-31T02:43:31.683Z,5.10
2023-08-31T02:46:05.010Z,5.03
2023-08-31T02:48:35.685Z,5.23
2023-08-31T02:51:04.872Z,5.20
2023-08-31T02:53:34.034Z,5.17
2023-08-31T02:56:04.689Z,5.00
2023-08-31T02:58:34.154Z,4.60
2023-08-31T03:01:12.747Z,5.10
2023-08-31T03:03:46.912Z,4.75
2023-08-31T03:06:17.720Z,4.67
2023-08-31T03:08:46.859Z,4.43
2023-08-31T03:11:18.048Z,5.10
2023-08-31T03:13:47.184Z,4.78
2023-08-31T03:16:16.326Z,4.70
2023-08-31T03:18:45.472Z,4.47
2023-08-31T03:21:15.346Z,4.67
2023-08-31T03:23:44.527Z,4.43
2023-08-31T03:26:15.069Z,4.43
2023-08-31T03:28:45.844Z,4.70
2023-08-31T03:31:15.045Z,4.60
2023-08-31T03:33:45.302Z,4.80
2023-08-31T03:36:15.010Z,4.87
2023-08-31T03:38:43.987Z,4.17
2023-08-31T03:41:13.077Z,4.60
2023-08-31T03:43:42.407Z,4.83
2023-08-31T03:46:12.999Z,4.63
2023-08-31T03:48:42.243Z,4.77
2023-08-31T03:51:11.345Z,4.50
2023-08-31T03:53:40.631Z,4.63
2023-08-31T03:56:09.777Z,4.30
2023-08-31T03:58:38.925Z,4.53
2023-08-31T04:01:08.086Z,4.47
2023-08-31T04:03:38.831Z,4.33
2023-08-31T04:06:08.023Z,4.43
2023-08-31T04:08:37.241Z,4.00
2023-08-31T04:11:06.702Z,4.07
2023-08-31T04:13:35.858Z,4.63
2023-08-31T04:16:04.997Z,4.27
2023-08-31T04:18:34.277Z,4.17
2023-08-31T04:21:05.746Z,4.10
2023-08-31T04:23:35.035Z,4.30
2023-08-31T04:26:12.946Z,4.10
2023-08-31T04:28:43.759Z,4.07
2023-08-31T04:31:13.147Z,3.93
2023-08-31T04:33:42.325Z,4.60
2023-08-31T04:36:13.064Z,4.50
2023-08-31T04:38:42.252Z,4.17
2023-08-31T04:41:11.350Z,4.30
2023-08-31T04:43:41.052Z,4.30
2023-08-31T04:46:10.141Z,3.60
2023-08-31T04:48:41.117Z,3.90
2023-08-31T04:51:16.188Z,4.00
2023-08-31T04:53:46.598Z,4.03
2023-08-31T04:56:16.734Z,3.17
2023-08-31T04:58:45.899Z,3.33
2023-08-31T05:01:15.934Z,3.53
2023-08-31T05:03:45.281Z,3.53
2023-08-31T05:06:15.872Z,3.60
2023-08-31T05:08:45.274Z,3.30
2023-08-31T05:11:14.430Z,3.15
2023-08-31T05:13:44.697Z,3.33
2023-08-31T05:16:14.164Z,3.08
2023-08-31T05:18:43.273Z,3.78
2023-08-31T05:21:12.351Z,3.85
2023-08-31T05:23:42.924Z,3.58
2023-08-31T05:26:12.072Z,3.58
2023-08-31T05:28:41.202Z,3.53
2023-08-31T05:31:10.749Z,3.10
2023-08-31T05:33:39.920Z,3.20
2023-08-31T05:36:09.364Z,3.10
2023-08-31T05:38:38.943Z,3.15
2023-08-31T05:41:10.888Z,3.28
2023-08-31T05:43:41.736Z,2.67
2023-08-31T05:46:11.023Z,2.70
2023-08-31T05:48:40.227Z,2.65
2023-08-31T05:51:09.320Z,2.63
2023-08-31T05:53:39.083Z,2.90
2023-08-31T05:56:09.792Z,2.75
2023-08-31T05:58:39.772Z,2.40
2023-08-31T06:01:09.084Z,2.25
2023-08-31T06:03:38.383Z,2.08
2023-08-31T06:06:07.643Z,2.10
2023-08-31T06:08:36.837Z,1.85
2023-08-31T06:11:06.103Z,1.60
2023-08-31T06:13:36.920Z,1.90
2023-08-31T06:16:06.486Z,1.77
2023-08-31T06:18:35.728Z,1.60
2023-08-31T06:21:05.360Z,1.50
2023-08-31T06:23:34.602Z,1.63
2023-08-31T06:26:04.766Z,1.80
2023-08-31T06:28:34.028Z,1.70
2023-08-31T06:31:05.565Z,1.80
2023-08-31T06:33:34.938Z,1.33
2023-08-31T06:36:04.126Z,1.52
2023-08-31T06:38:33.314Z,1.88
2023-08-31T06:41:04.209Z,1.40
2023-08-31T06:43:33.407Z,1.70
2023-08-31T06:46:21.814Z,1.65
2023-08-31T06:48:53.928Z,1.92
2023-08-31T06:51:25.233Z,1.55
2023-08-31T06:53:55.022Z,1.73
2023-08-31T06:56:24.642Z,1.60
2023-08-31T06:58:53.964Z,1.70
2023-08-31T07:01:25.196Z,1.50
2023-08-31T07:03:54.563Z,1.60
2023-08-31T07:06:23.874Z,1.80
2023-08-31T07:08:53.306Z,1.77
2023-08-31T07:11:22.911Z,1.70
2023-08-31T07:13:52.246Z,2.03
2023-08-31T07:16:21.658Z,2.70
2023-08-31T07:18:52.265Z,2.60
2023-08-31T07:21:21.969Z,1.98
2023-08-31T07:23:51.316Z,2.20
2023-08-31T07:26:20.565Z,2.30
2023-08-31T07:28:49.873Z,2.10
2023-08-31T07:31:19.261Z,2.22
2023-08-31T07:33:48.606Z,2.45
2023-08-31T07:36:19.343Z,2.47
2023-08-31T07:38:48.509Z,2.38
2023-08-31T07:41:17.813Z,1.92
2023-08-31T07:44:03.661Z,1.83
2023-08-31T07:46:34.370Z,1.90
2023-08-31T07:49:05.262Z,1.77
2023-08-31T07:51:36.130Z,1.70
2023-08-31T07:54:05.534Z,2.03
2023-08-31T07:56:34.878Z,2.17
2023-08-31T07:59:04.260Z,2.03
2023-08-31T08:01:33.879Z,1.98
2023-08-31T08:04:03.483Z,1.80
2023-08-31T08:06:32.820Z,1.70
2023-08-31T08:09:03.912Z,1.85
2023-08-31T08:11:33.607Z,1.83
2023-08-31T08:14:02.823Z,1.73
2023-08-31T08:16:32.291Z,1.70
2023-08-31T08:19:01.555Z,1.77
2023-08-31T08:21:30.832Z,1.70
2023-08-31T08:24:00.187Z,1.80
2023-08-31T08:26:30.915Z,1.80
2023-08-31T08:29:00.128Z,1.80
2023-08-31T08:31:29.438Z,1.67
2023-08-31T08:33:59.250Z,1.75
2023-08-31T08:36:28.515Z,1.60
2023-08-31T08:38:57.879Z,1.60
2023-08-31T08:41:27.407Z,1.70
2023-08-31T08:44:04.721Z,1.67
2023-08-31T08:46:35.208Z,1.50
2023-08-31T08:49:06.858Z,1.80
2023-08-31T08:51:36.292Z,1.70
2023-08-31T08:54:06.008Z,1.60
2023-08-31T08:56:36.142Z,1.75
2023-08-31T08:59:07.482Z,1.80
2023-08-31T09:01:38.859Z,1.90
2023-08-31T09:04:08.896Z,1.90
2023-08-31T09:06:38.369Z,1.85
2023-08-31T09:09:07.701Z,2.90
2023-08-31T09:11:38.524Z,4.82
2023-08-31T09:14:18.771Z,2.70
2023-08-31T09:16:49.984Z,2.25
2023-08-31T09:19:24.525Z,1.98
2023-08-31T09:21:56.016Z,2.08
2023-08-31T09:24:25.801Z,2.30
2023-08-31T09:26:56.431Z,2.25
2023-08-31T09:29:27.166Z,1.90
2023-08-31T09:31:59.708Z,2.20
2023-08-31T09:34:36.269Z,1.92
2023-08-31T09:37:10.419Z,1.90
2023-08-31T09:39:39.965Z,1.92
2023-08-31T09:42:09.569Z,2.30
2023-08-31T09:44:44.064Z,1.83
2023-08-31T09:47:15.405Z,2.08
2023-08-31T09:49:46.701Z,1.75
2023-08-31T09:52:17.133Z,1.95
2023-08-31T09:54:47.531Z,1.98
2023-08-31T09:57:22.592Z,1.73
2023-08-31T10:00:00.754Z,1.98
2023-08-31T10:02:33.431Z,1.98
2023-08-31T10:05:06.765Z,2.00
2023-08-31T10:07:36.413Z,2.33
2023-08-31T10:10:06.398Z,2.03
2023-08-31T10:12:37.160Z,2.10
2023-08-31T10:15:09.158Z,1.85
2023-08-31T10:17:39.354Z,1.80
2023-08-31T10:20:10.940Z,1.70
2023-08-31T10:22:40.840Z,2.40
2023-08-31T10:25:13.108Z,2.40
2023-08-31T10:27:43.684Z,2.70
2023-08-31T10:30:27.249Z,2.20
2023-08-31T10:33:25.027Z,2.22
2023-08-31T10:35:57.307Z,2.00
2023-08-31T10:38:28.429Z,2.03
2023-08-31T10:41:20.194Z,1.92
2023-08-31T10:43:51.627Z,1.80
2023-08-31T10:46:33.420Z,1.75
2023-08-31T10:49:04.410Z,2.15
2023-08-31T10:51:34.781Z,1.90
2023-08-31T10:54:15.061Z,2.17
2023-08-31T10:57:13.714Z,2.22
2023-08-31T10:59:49.219Z,2.03
2023-08-31T11:02:37.862Z,2.00
2023-08-31T11:05:11.810Z,2.10
2023-08-31T11:07:42.670Z,2.50
2023-08-31T11:10:14.915Z,2.00
2023-08-31T11:12:45.538Z,2.20
2023-08-31T11:15:15.947Z,2.30
2023-08-31T11:17:47.981Z,2.25
2023-08-31T11:20:19.168Z,2.05
2023-08-31T11:22:51.889Z,2.42
2023-08-31T11:25:22.981Z,2.90
2023-08-31T11:27:58.934Z,2.55
2023-08-31T11:30:28.860Z,2.30
2023-08-31T11:32:59.902Z,2.30
2023-08-31T11:35:37.534Z,2.30
2023-08-31T11:38:08.371Z,2.50
2023-08-31T11:40:38.694Z,2.40
2023-08-31T11:43:08.811Z,2.58
2023-08-31T11:45:39.913Z,2.50
2023-08-31T11:48:11.132Z,2.38
2023-08-31T11:50:43.440Z,2.10
2023-08-31T11:53:13.289Z,2.30
2023-08-31T11:55:53.279Z,2.08
2023-08-31T11:58:22.685Z,2.47
2023-08-31T12:00:58.856Z,2.55
2023-08-31T12:03:40.116Z,2.53
2023-08-31T12:06:14.128Z,2.10
2023-08-31T12:08:43.565Z,2.35
2023-08-31T12:11:13.251Z,2.40
2023-08-31T12:13:42.592Z,2.45
2023-08-31T12:16:15.332Z,2.50
2023-08-31T12:18:47.259Z,2.40
2023-08-31T12:21:16.454Z,2.70
2023-08-31T12:23:45.631Z,2.60
2023-08-31T12:26:14.915Z,2.75
2023-08-31T12:28:44.112Z,2.58
2023-08-31T12:31:13.661Z,2.15
2023-08-31T12:33:43.052Z,2.20
2023-08-31T12:36:13.646Z,2.60
2023-08-31T12:38:42.911Z,2.88
2023-08-31T12:41:12.034Z,2.78
2023-08-31T12:43:41.269Z,2.50
2023-08-31T12:46:11.017Z,2.65
2023-08-31T12:48:40.150Z,2.50
2023-08-31T12:51:09.341Z,2.35
2023-08-31T12:53:42.249Z,2.72
2023-08-31T12:56:11.699Z,2.42
2023-08-31T12:58:41.337Z,3.00
2023-08-31T13:01:10.730Z,2.85
2023-08-31T13:03:40.099Z,2.78
2023-08-31T13:06:09.396Z,2.47
2023-08-31T13:08:38.683Z,2.78
2023-08-31T13:11:09.763Z,2.20
2023-08-31T13:13:39.077Z,2.40
2023-08-31T13:16:08.284Z,2.40
2023-08-31T13:18:37.648Z,2.35
2023-08-31T13:21:06.850Z,2.80
2023-08-31T13:23:36.126Z,2.72
2023-08-31T13:26:05.566Z,2.90
2023-08-31T13:28:36.368Z,3.20
2023-08-31T13:31:05.799Z,2.60
2023-08-31T13:33:35.005Z,2.60
2023-08-31T13:36:04.990Z,2.50
2023-08-31T13:38:34.206Z,2.38
2023-08-31T13:41:04.853Z,2.65
2023-08-31T13:43:35.396Z,2.80
2023-08-31T13:46:05.774Z,2.42
2023-08-31T13:48:35.228Z,2.80
2023-08-31T13:51:04.732Z,2.60
2023-08-31T13:53:34.041Z,2.50
2023-08-31T13:56:03.399Z,2.30
2023-08-31T13:58:32.514Z,2.83
2023-08-31T14:01:05.131Z,2.45
2023-08-31T14:03:34.580Z,2.70
2023-08-31T14:06:07.135Z,2.65
2023-08-31T14:08:37.094Z,2.55
2023-08-31T14:11:08.274Z,2.67
2023-08-31T14:13:37.712Z,2.75
2023-08-31T14:16:09.587Z,2.60
2023-08-31T14:18:39.008Z,2.88
2023-08-31T14:21:08.342Z,2.72
2023-08-31T14:23:38.808Z,2.65
2023-08-31T14:26:10.846Z,2.72
2023-08-31T14:28:40.125Z,3.10
2023-08-31T14:31:11.235Z,2.92
2023-08-31T14:33:41.067Z,2.90
2023-08-31T14:36:11.960Z,2.47
2023-08-31T14:38:42.127Z,2.70
2023-08-31T14:41:12.260Z,2.90
2023-08-31T14:43:41.998Z,3.28
2023-08-31T14:46:13.827Z,3.33
2023-08-31T14:48:43.777Z,3.65
2023-08-31T14:51:14.907Z,3.38
2023-08-31T14:53:44.201Z,3.92
2023-08-31T14:56:14.739Z,4.15
2023-08-31T14:58:44.273Z,3.63
2023-08-31T15:01:15.775Z,4.18
2023-08-31T15:03:46.572Z,4.50
2023-08-31T15:06:17.186Z,3.95
2023-08-31T15:08:47.642Z,4.18
2023-08-31T15:11:17.174Z,4.55
2023-08-31T15:13:47.614Z,4.32
2023-08-31T15:16:19.655Z,4.47
2023-08-31T15:18:50.026Z,5.00
2023-08-31T15:21:22.433Z,4.78
2023-08-31T15:23:52.744Z,5.50
2023-08-31T15:26:22.603Z,7.75
2023-08-31T15:28:54.491Z,6.68
2023-08-31T15:31:26.709Z,5.20
2023-08-31T15:33:57.260Z,5.32
2023-08-31T15:36:27.070Z,5.43
2023-08-31T15:38:57.202Z,5.57
2023-08-31T15:41:30.176Z,5.38
2023-08-31T15:44:01.386Z,5.70
2023-08-31T15:46:32.628Z,5.72
2023-08-31T15:49:03.480Z,6.43
2023-08-31T15:51:34.731Z,5.90
2023-08-31T15:54:06.220Z,5.90
2023-08-31T15:56:36.423Z,5.45
2023-08-31T15:59:07.154Z,6.07
2023-08-31T16:01:39.381Z,6.05
2023-08-31T16:04:10.188Z,6.32
2023-08-31T16:06:41.384Z,6.03
2023-08-31T16:09:11.097Z,6.40
2023-08-31T16:11:42.180Z,5.75
2023-08-31T16:14:12.925Z,6.22
2023-08-31T16:16:43.863Z,6.07
2023-08-31T16:19:13.985Z,5.72
2023-08-31T16:21:44.590Z,5.20
2023-08-31T16:24:15.320Z,5.47
2023-08-31T16:26:45.641Z,5.93
2023-08-31T16:29:18.204Z,5.63
2023-08-31T16:31:50.523Z,5.50
2023-08-31T16:34:20.313Z,5.03
2023-08-31T16:36:50.989Z,5.07
2023-08-31T16:39:22.137Z,5.28
2023-08-31T16:41:53.227Z,4.65
2023-08-31T16:44:24.202Z,4.38
2023-08-31T16:46:59.801Z,4.82
2023-08-31T16:49:30.435Z,4.57
2023-08-31T16:52:01.781Z,4.55
2023-08-31T16:54:32.133Z,4.60
2023-08-31T16:57:04.089Z,4.40
2023-08-31T16:59:33.572Z,4.88
2023-08-31T17:02:05.188Z,4.30
2023-08-31T17:04:40.523Z,3.40
2023-08-31T17:07:10.423Z,3.45
2023-08-31T17:09:41.311Z,3.25
2023-08-31T17:12:13.319Z,3.17
2023-08-31T17:14:47.054Z,2.78
2023-08-31T17:17:18.945Z,3.20
2023-08-31T17:19:50.742Z,2.97
2023-08-31T17:22:22.143Z,2.90
2023-08-31T17:24:55.961Z,2.90
2023-08-31T17:27:26.047Z,2.90
2023-08-31T17:29:57.664Z,3.15
2023-08-31T17:32:31.516Z,3.08
2023-08-31T17:35:04.841Z,2.67
2023-08-31T17:37:35.560Z,2.60
2023-08-31T17:40:08.785Z,2.90
2023-08-31T17:42:42.294Z,2.97
2023-08-31T17:45:15.839Z,2.85
2023-08-31T17:47:49.515Z,3.10
2023-08-31T17:50:21.146Z,3.42
2023-08-31T17:52:52.741Z,3.25
2023-08-31T17:55:25.719Z,3.63
2023-08-31T17:58:06.270Z,3.42
2023-08-31T18:00:38.569Z,3.40
2023-08-31T18:03:13.719Z,3.13
2023-08-31T18:05:53.510Z,3.42
2023-08-31T18:08:24.961Z,3.17
2023-08-31T18:10:55.585Z,3.22
2023-08-31T18:13:29.226Z,3.40
2023-08-31T18:16:00.246Z,3.10
2023-08-31T18:18:36.443Z,3.35
2023-08-31T18:21:07.399Z,2.92
2023-08-31T18:23:39.971Z,3.22
2023-08-31T18:26:14.903Z,3.25
2023-08-31T18:28:44.836Z,3.35
2023-08-31T18:31:18.530Z,3.25
2023-08-31T18:33:55.380Z,3.60
2023-08-31T18:36:25.390Z,3.40
2023-08-31T18:39:01.430Z,4.20
2023-08-31T18:41:32.363Z,3.30
2023-08-31T18:44:04.111Z,3.78
2023-08-31T18:46:35.327Z,3.55
2023-08-31T18:49:07.832Z,3.40
2023-08-31T18:51:45.087Z,3.58
2023-08-31T18:54:17.130Z,3.28
2023-08-31T18:56:49.751Z,3.40
2023-08-31T18:59:21.589Z,3.42
2023-08-31T19:01:52.780Z,3.97
2023-08-31T19:04:25.796Z,3.60
2023-08-31T19:07:02.900Z,3.42
2023-08-31T19:09:34.596Z,3.42
2023-08-31T19:12:05.766Z,3.47
2023-08-31T19:14:44.924Z,3.13
2023-08-31T19:17:18.029Z,3.65
2023-08-31T19:19:57.330Z,3.40
2023-08-31T19:22:28.396Z,3.45
2023-08-31T19:25:01.758Z,3.40
2023-08-31T19:27:32.107Z,3.38
2023-08-31T19:30:04.897Z,3.40
2023-08-31T19:32:36.750Z,3.58
2023-08-31T19:35:32.602Z,3.15
2023-08-31T19:38:05.832Z,3.45
2023-08-31T19:40:35.880Z,3.58
2023-08-31T19:43:12.758Z,3.40
2023-08-31T19:45:42.961Z,3.38
2023-08-31T19:48:14.259Z,3.17
2023-08-31T19:50:49.607Z,3.55
2023-08-31T19:53:19.542Z,3.35
2023-08-31T19:55:52.833Z,3.00
2023-08-31T19:58:25.464Z,3.87
2023-08-31T20:00:56.466Z,3.33
2023-08-31T20:03:27.952Z,3.43
2023-08-31T20:05:59.734Z,4.17
2023-08-31T20:08:33.470Z,3.80
2023-08-31T20:11:04.641Z,3.20
2023-08-31T20:13:36.291Z,3.50
2023-08-31T20:16:11.305Z,3.43
2023-08-31T20:18:40.757Z,3.70
2023-08-31T20:21:15.638Z,3.87
2023-08-31T20:23:45.705Z,3.70
2023-08-31T20:26:16.484Z,3.80
2023-08-31T20:28:48.545Z,3.27
2023-08-31T20:31:20.597Z,3.70
2023-08-31T20:33:50.634Z,3.80
2023-08-31T20:36:24.985Z,4.20
2023-08-31T20:38:54.987Z,3.80
2023-08-31T20:41:25.909Z,4.00
2023-08-31T20:43:55.687Z,3.63
2023-08-31T20:46:25.397Z,3.73
2023-08-31T20:48:54.675Z,3.50
2023-08-31T20:51:26.942Z,3.83
2023-08-31T20:53:57.155Z,4.13
2023-08-31T20:56:29.469Z,3.87
2023-08-31T20:58:59.867Z,3.90
2023-08-31T21:01:29.405Z,3.57
2023-08-31T21:04:00.174Z,3.67
2023-08-31T21:06:31.153Z,3.83
2023-08-31T21:09:00.692Z,3.97
2023-08-31T21:11:30.617Z,4.03
2023-08-31T21:14:00.149Z,3.60
2023-08-31T21:16:33.470Z,3.73
2023-08-31T21:19:06.424Z,4.20
2023-08-31T21:21:37.524Z,3.63
2023-08-31T21:24:07.170Z,3.97
2023-08-31T21:26:39.431Z,4.13
2023-08-31T21:29:09.663Z,3.83
2023-08-31T21:31:39.649Z,4.50
2023-08-31T21:34:09.182Z,4.23
2023-08-31T21:36:39.755Z,4.70
2023-08-31T21:39:08.884Z,4.00
2023-08-31T21:41:38.018Z,3.97
2023-08-31T21:44:07.524Z,4.17
2023-08-31T21:46:36.650Z,4.23
2023-08-31T21:49:06.233Z,4.33
2023-08-31T21:51:35.309Z,3.97
2023-08-31T21:54:06.172Z,4.60
2023-08-31T21:56:35.275Z,4.70
2023-08-31T21:59:04.517Z,4.20
2023-08-31T22:01:33.618Z,4.10
2023-08-31T22:04:02.825Z,4.23
2023-08-31T22:06:32.300Z,4.53
2023-08-31T22:09:01.542Z,4.33
2023-08-31T22:11:32.378Z,4.60
2023-08-31T22:14:01.888Z,4.30
2023-08-31T22:16:31.176Z,3.97
2023-08-31T22:19:01.170Z,4.47
2023-08-31T22:21:30.497Z,4.17
2023-08-31T22:24:00.037Z,4.70
2023-08-31T22:26:29.607Z,4.40
2023-08-31T22:29:00.636Z,4.00
2023-08-31T22:31:30.004Z,4.30
2023-08-31T22:33:59.375Z,4.70
2023-08-31T22:36:28.853Z,4.80
2023-08-31T22:38:58.379Z,4.40
2023-08-31T22:41:27.698Z,3.97
2023-08-31T22:43:57.113Z,4.00
2023-08-31T22:46:27.832Z,3.87
2023-08-31T22:48:57.071Z,4.20
2023-08-31T22:51:26.110Z,3.70
2023-08-31T22:53:55.256Z,3.90
2023-08-31T22:56:24.345Z,3.73
2023-08-31T22:58:53.522Z,3.70
2023-08-31T23:01:22.743Z,3.77
2023-08-31T23:03:53.373Z,3.83
2023-08-31T23:06:22.649Z,4.13
2023-08-31T23:08:51.863Z,3.93
2023-08-31T23:11:22.085Z,3.83
2023-08-31T23:13:51.721Z,3.60
2023-08-31T23:16:20.881Z,4.13
2023-08-31T23:18:50.105Z,4.10
2023-08-31T23:21:26.714Z,4.13
2023-08-31T23:24:00.912Z,3.93
2023-08-31T23:26:30.109Z,4.43
2023-08-31T23:28:59.233Z,3.87
2023-08-31T23:31:28.466Z,4.00
2023-08-31T23:33:57.588Z,3.63
2023-08-31T23:36:28.344Z,3.73
2023-08-31T23:38:57.480Z,4.47
2023-08-31T23:41:27.310Z,3.93
2023-08-31T23:43:56.495Z,3.90
2023-08-31T23:46:26.305Z,3.70
2023-08-31T23:48:55.469Z,3.33
2023-08-31T23:51:24.884Z,4.03
2023-08-31T23:53:56.484Z,3.90
2023-08-31T23:56:25.794Z,4.10
2023-08-31T23:58:54.894Z,3.53
